sensor_id;sensor_type;location;lat;lon;timestamp;temperature;humidity
20422;DHT22;10370;53.102;18.034;2023-04-23T00:04:29;8.90;99.90
20422;DHT22;10370;53.102;18.034;2023-04-23T00:09:56;8.90;99.90
20422;DHT22;10370;53.102;18.034;2023-04-23T00:15:22;9.00;99.90
20422;DHT22;10370;53.102;18.034;2023-04-23T00:20:47;9.10;99.90
20422;DHT22;10370;53.102;18.034;2023-04-23T00:26:10;9.10;99.90
20422;DHT22;10370;53.102;18.034;2023-04-23T00:31:33;9.20;99.90
20422;DHT22;10370;53.102;18.034;2023-04-23T00:36:56;9.20;99.90
20422;DHT22;10370;53.102;18.034;2023-04-23T00:42:21;9.10;99.90
20422;DHT22;10370;53.102;18.034;2023-04-23T00:47:47;9.20;99.90
20422;DHT22;10370;53.102;18.034;2023-04-23T00:53:10;8.80;99.90
20422;DHT22;10370;53.102;18.034;2023-04-23T00:58:36;8.60;99.90
20422;DHT22;10370;53.102;18.034;2023-04-23T01:04:00;8.50;99.90
20422;DHT22;10370;53.102;18.034;2023-04-23T01:09:53;8.50;99.90
20422;DHT22;10370;53.102;18.034;2023-04-23T01:22:18;8.40;99.90
20422;DHT22;10370;53.102;18.034;2023-04-23T01:28:40;8.30;99.90
20422;DHT22;10370;53.102;18.034;2023-04-23T01:47:37;8.30;99.90
20422;DHT22;10370;53.102;18.034;2023-04-23T01:53:28;8.30;99.90
20422;DHT22;10370;53.102;18.034;2023-04-23T01:59:02;8.40;99.90
20422;DHT22;10370;53.102;18.034;2023-04-23T02:04:46;8.40;99.90
20422;DHT22;10370;53.102;18.034;2023-04-23T02:10:12;8.30;99.90
20422;DHT22;10370;53.102;18.034;2023-04-23T02:15:39;8.30;99.90
20422;DHT22;10370;53.102;18.034;2023-04-23T02:21:05;8.40;99.90
20422;DHT22;10370;53.102;18.034;2023-04-23T02:26:43;8.30;99.90
20422;DHT22;10370;53.102;18.034;2023-04-23T02:32:13;8.40;99.90
20422;DHT22;10370;53.102;18.034;2023-04-23T02:37:39;8.30;99.90
20422;DHT22;10370;53.102;18.034;2023-04-23T02:43:16;8.30;99.90
20422;DHT22;10370;53.102;18.034;2023-04-23T02:48:58;8.30;99.90
20422;DHT22;10370;53.102;18.034;2023-04-23T02:54:33;8.40;99.90
20422;DHT22;10370;53.102;18.034;2023-04-23T03:00:13;8.40;99.90
20422;DHT22;10370;53.102;18.034;2023-04-23T03:19:59;8.40;99.90
20422;DHT22;10370;53.102;18.034;2023-04-23T03:25:26;8.40;99.90
20422;DHT22;10370;53.102;18.034;2023-04-23T03:30:53;8.30;99.90
20422;DHT22;10370;53.102;18.034;2023-04-23T03:36:21;8.30;99.90
20422;DHT22;10370;53.102;18.034;2023-04-23T03:41:50;8.30;99.90
20422;DHT22;10370;53.102;18.034;2023-04-23T03:47:17;8.30;99.90
20422;DHT22;10370;53.102;18.034;2023-04-23T03:52:44;8.30;99.90
20422;DHT22;10370;53.102;18.034;2023-04-23T03:58:11;8.40;99.90
20422;DHT22;10370;53.102;18.034;2023-04-23T04:03:34;8.40;99.90
20422;DHT22;10370;53.102;18.034;2023-04-23T04:08:58;8.50;99.90
20422;DHT22;10370;53.102;18.034;2023-04-23T04:14:26;8.50;99.90
20422;DHT22;10370;53.102;18.034;2023-04-23T04:19:50;8.60;99.90
20422;DHT22;10370;53.102;18.034;2023-04-23T04:25:26;8.80;99.90
20422;DHT22;10370;53.102;18.034;2023-04-23T04:30:51;9.00;99.90
20422;DHT22;10370;53.102;18.034;2023-04-23T04:36:17;9.50;99.90
20422;DHT22;10370;53.102;18.034;2023-04-23T04:41:40;10.60;99.90
20422;DHT22;10370;53.102;18.034;2023-04-23T04:47:02;12.80;99.90
20422;DHT22;10370;53.102;18.034;2023-04-23T04:52:26;14.30;99.90
20422;DHT22;10370;53.102;18.034;2023-04-23T04:57:47;15.50;99.90
20422;DHT22;10370;53.102;18.034;2023-04-23T05:03:11;15.70;99.90
20422;DHT22;10370;53.102;18.034;2023-04-23T05:08:35;16.30;99.90
20422;DHT22;10370;53.102;18.034;2023-04-23T05:13:58;17.00;99.90
20422;DHT22;10370;53.102;18.034;2023-04-23T05:19:19;17.90;99.90
20422;DHT22;10370;53.102;18.034;2023-04-23T05:24:43;18.90;99.90
20422;DHT22;10370;53.102;18.034;2023-04-23T05:30:09;19.50;99.90
20422;DHT22;10370;53.102;18.034;2023-04-23T05:35:34;20.10;99.90
20422;DHT22;10370;53.102;18.034;2023-04-23T05:40:56;20.20;99.70
20422;DHT22;10370;53.102;18.034;2023-04-23T05:46:20;20.40;99.10
20422;DHT22;10370;53.102;18.034;2023-04-23T05:51:42;20.40;99.00
20422;DHT22;10370;53.102;18.034;2023-04-23T05:57:07;19.70;97.80
20422;DHT22;10370;53.102;18.034;2023-04-23T06:02:30;17.10;99.90
20422;DHT22;10370;53.102;18.034;2023-04-23T06:07:55;15.70;99.90
20422;DHT22;10370;53.102;18.034;2023-04-23T06:13:18;15.10;99.90
20422;DHT22;10370;53.102;18.034;2023-04-23T06:18:42;15.00;99.90
20422;DHT22;10370;53.102;18.034;2023-04-23T06:24:07;14.90;99.90
20422;DHT22;10370;53.102;18.034;2023-04-23T06:29:28;14.90;99.90
20422;DHT22;10370;53.102;18.034;2023-04-23T06:34:51;14.80;99.90
20422;DHT22;10370;53.102;18.034;2023-04-23T06:40:20;14.90;99.90
20422;DHT22;10370;53.102;18.034;2023-04-23T06:45:41;14.90;99.90
20422;DHT22;10370;53.102;18.034;2023-04-23T06:51:04;15.00;99.90
20422;DHT22;10370;53.102;18.034;2023-04-23T06:56:28;15.00;99.90
20422;DHT22;10370;53.102;18.034;2023-04-23T07:01:51;15.10;99.90
20422;DHT22;10370;53.102;18.034;2023-04-23T07:07:13;15.20;99.90
20422;DHT22;10370;53.102;18.034;2023-04-23T07:12:37;15.40;99.90
20422;DHT22;10370;53.102;18.034;2023-04-23T07:18:01;15.50;99.90
20422;DHT22;10370;53.102;18.034;2023-04-23T07:23:24;15.70;99.90
20422;DHT22;10370;53.102;18.034;2023-04-23T07:28:47;15.80;99.90
20422;DHT22;10370;53.102;18.034;2023-04-23T07:34:13;16.00;99.90
20422;DHT22;10370;53.102;18.034;2023-04-23T07:39:37;16.20;99.90
20422;DHT22;10370;53.102;18.034;2023-04-23T07:45:04;16.50;99.90
20422;DHT22;10370;53.102;18.034;2023-04-23T07:50:30;16.70;99.90
20422;DHT22;10370;53.102;18.034;2023-04-23T07:55:54;16.90;99.90
20422;DHT22;10370;53.102;18.034;2023-04-23T08:01:18;17.10;99.90
20422;DHT22;10370;53.102;18.034;2023-04-23T08:06:44;17.20;99.90
20422;DHT22;10370;53.102;18.034;2023-04-23T08:12:09;17.30;99.90
20422;DHT22;10370;53.102;18.034;2023-04-23T08:17:34;17.50;99.90
20422;DHT22;10370;53.102;18.034;2023-04-23T08:22:59;17.60;99.90
20422;DHT22;10370;53.102;18.034;2023-04-23T08:28:24;17.90;99.90
20422;DHT22;10370;53.102;18.034;2023-04-23T08:33:51;18.00;99.90
20422;DHT22;10370;53.102;18.034;2023-04-23T08:39:16;18.10;99.90
20422;DHT22;10370;53.102;18.034;2023-04-23T08:44:42;18.30;99.90
20422;DHT22;10370;53.102;18.034;2023-04-23T08:50:10;18.50;99.90
20422;DHT22;10370;53.102;18.034;2023-04-23T08:55:36;18.70;99.90
20422;DHT22;10370;53.102;18.034;2023-04-23T09:01:02;18.70;99.90
20422;DHT22;10370;53.102;18.034;2023-04-23T09:06:28;18.80;99.90
20422;DHT22;10370;53.102;18.034;2023-04-23T09:11:55;19.00;99.90
20422;DHT22;10370;53.102;18.034;2023-04-23T09:17:21;19.30;99.90
20422;DHT22;10370;53.102;18.034;2023-04-23T09:22:47;19.30;99.90
20422;DHT22;10370;53.102;18.034;2023-04-23T09:28:12;19.60;99.90
20422;DHT22;10370;53.102;18.034;2023-04-23T09:33:39;19.80;99.90
20422;DHT22;10370;53.102;18.034;2023-04-23T09:39:11;19.90;98.40
20422;DHT22;10370;53.102;18.034;2023-04-23T09:44:36;19.80;96.20
20422;DHT22;10370;53.102;18.034;2023-04-23T09:50:03;20.00;94.90
20422;DHT22;10370;53.102;18.034;2023-04-23T09:55:35;20.30;94.20
20422;DHT22;10370;53.102;18.034;2023-04-23T10:01:10;20.40;93.80
20422;DHT22;10370;53.102;18.034;2023-04-23T10:06:37;20.40;91.00
20422;DHT22;10370;53.102;18.034;2023-04-23T10:12:15;20.30;91.30
20422;DHT22;10370;53.102;18.034;2023-04-23T10:17:43;20.40;92.00
20422;DHT22;10370;53.102;18.034;2023-04-23T10:23:09;20.40;91.80
20422;DHT22;10370;53.102;18.034;2023-04-23T10:28:36;20.50;92.00
20422;DHT22;10370;53.102;18.034;2023-04-23T10:34:03;20.80;91.60
20422;DHT22;10370;53.102;18.034;2023-04-23T10:39:31;20.80;92.00
20422;DHT22;10370;53.102;18.034;2023-04-23T10:44:59;20.90;86.30
20422;DHT22;10370;53.102;18.034;2023-04-23T10:50:35;21.00;88.90
20422;DHT22;10370;53.102;18.034;2023-04-23T10:56:27;20.90;88.60
20422;DHT22;10370;53.102;18.034;2023-04-23T11:01:52;21.10;88.70
20422;DHT22;10370;53.102;18.034;2023-04-23T11:07:25;21.20;88.70
20422;DHT22;10370;53.102;18.034;2023-04-23T11:12:51;21.20;89.80
20422;DHT22;10370;53.102;18.034;2023-04-23T11:18:25;21.20;90.80
20422;DHT22;10370;53.102;18.034;2023-04-23T11:24:09;21.30;91.20
20422;DHT22;10370;53.102;18.034;2023-04-23T11:29:32;21.40;90.20
20422;DHT22;10370;53.102;18.034;2023-04-23T11:34:57;21.50;90.00
20422;DHT22;10370;53.102;18.034;2023-04-23T11:40:27;21.60;86.10
20422;DHT22;10370;53.102;18.034;2023-04-23T11:45:56;21.70;85.70
20422;DHT22;10370;53.102;18.034;2023-04-23T11:51:27;21.60;85.80
20422;DHT22;10370;53.102;18.034;2023-04-23T11:56:55;21.60;83.70
20422;DHT22;10370;53.102;18.034;2023-04-23T12:02:22;21.60;85.70
20422;DHT22;10370;53.102;18.034;2023-04-23T12:07:50;21.70;78.70
20422;DHT22;10370;53.102;18.034;2023-04-23T12:13:20;21.80;80.40
20422;DHT22;10370;53.102;18.034;2023-04-23T12:18:52;21.80;81.10
20422;DHT22;10370;53.102;18.034;2023-04-23T12:24:24;21.90;82.20
20422;DHT22;10370;53.102;18.034;2023-04-23T12:29:59;22.00;84.80
20422;DHT22;10370;53.102;18.034;2023-04-23T12:35:49;22.00;83.70
20422;DHT22;10370;53.102;18.034;2023-04-23T12:41:15;22.20;84.50
20422;DHT22;10370;53.102;18.034;2023-04-23T12:46:41;22.20;84.80
20422;DHT22;10370;53.102;18.034;2023-04-23T12:52:07;22.10;85.80
20422;DHT22;10370;53.102;18.034;2023-04-23T12:57:35;22.00;85.40
20422;DHT22;10370;53.102;18.034;2023-04-23T13:03:01;21.90;85.10
20422;DHT22;10370;53.102;18.034;2023-04-23T13:08:26;22.10;85.50
20422;DHT22;10370;53.102;18.034;2023-04-23T13:13:50;22.10;88.30
20422;DHT22;10370;53.102;18.034;2023-04-23T13:19:17;22.20;90.30
20422;DHT22;10370;53.102;18.034;2023-04-23T13:24:41;22.50;88.30
20422;DHT22;10370;53.102;18.034;2023-04-23T13:30:07;22.60;88.60
20422;DHT22;10370;53.102;18.034;2023-04-23T13:35:33;22.70;89.00
20422;DHT22;10370;53.102;18.034;2023-04-23T13:41:01;22.50;87.60
20422;DHT22;10370;53.102;18.034;2023-04-23T13:46:27;22.30;88.50
20422;DHT22;10370;53.102;18.034;2023-04-23T13:51:52;22.20;89.60
20422;DHT22;10370;53.102;18.034;2023-04-23T13:57:23;21.90;88.90
20422;DHT22;10370;53.102;18.034;2023-04-23T14:02:50;21.70;90.10
20422;DHT22;10370;53.102;18.034;2023-04-23T14:08:16;21.60;90.30
20422;DHT22;10370;53.102;18.034;2023-04-23T14:13:42;21.50;90.80
20422;DHT22;10370;53.102;18.034;2023-04-23T14:19:08;21.30;90.90
20422;DHT22;10370;53.102;18.034;2023-04-23T14:24:39;21.10;91.10
20422;DHT22;10370;53.102;18.034;2023-04-23T14:30:18;20.90;91.80
20422;DHT22;10370;53.102;18.034;2023-04-23T14:35:43;20.70;92.10
20422;DHT22;10370;53.102;18.034;2023-04-23T14:41:09;20.60;92.90
20422;DHT22;10370;53.102;18.034;2023-04-23T14:46:34;20.40;93.90
20422;DHT22;10370;53.102;18.034;2023-04-23T14:51:59;20.30;95.10
20422;DHT22;10370;53.102;18.034;2023-04-23T14:57:26;20.10;96.40
20422;DHT22;10370;53.102;18.034;2023-04-23T15:02:53;19.80;97.30
20422;DHT22;10370;53.102;18.034;2023-04-23T15:08:19;19.60;98.80
20422;DHT22;10370;53.102;18.034;2023-04-23T15:19:46;19.50;99.90
20422;DHT22;10370;53.102;18.034;2023-04-23T15:25:11;19.40;99.90
20422;DHT22;10370;53.102;18.034;2023-04-23T15:30:36;19.40;99.90
20422;DHT22;10370;53.102;18.034;2023-04-23T15:36:03;19.30;99.90
20422;DHT22;10370;53.102;18.034;2023-04-23T15:41:29;19.10;99.90
20422;DHT22;10370;53.102;18.034;2023-04-23T15:46:54;19.00;99.90
20422;DHT22;10370;53.102;18.034;2023-04-23T15:52:25;18.80;99.90
20422;DHT22;10370;53.102;18.034;2023-04-23T15:57:52;18.70;99.90
20422;DHT22;10370;53.102;18.034;2023-04-23T16:03:19;18.50;99.90
20422;DHT22;10370;53.102;18.034;2023-04-23T16:08:45;18.30;99.90
20422;DHT22;10370;53.102;18.034;2023-04-23T16:14:09;18.00;99.90
20422;DHT22;10370;53.102;18.034;2023-04-23T16:19:34;17.90;99.90
20422;DHT22;10370;53.102;18.034;2023-04-23T16:24:59;17.70;99.90
20422;DHT22;10370;53.102;18.034;2023-04-23T16:30:32;17.50;99.90
20422;DHT22;10370;53.102;18.034;2023-04-23T16:36:00;17.30;99.90
20422;DHT22;10370;53.102;18.034;2023-04-23T16:41:28;17.20;99.90
20422;DHT22;10370;53.102;18.034;2023-04-23T16:46:55;16.90;99.90
20422;DHT22;10370;53.102;18.034;2023-04-23T16:52:30;16.70;99.90
20422;DHT22;10370;53.102;18.034;2023-04-23T16:57:55;16.50;99.90
20422;DHT22;10370;53.102;18.034;2023-04-23T17:03:19;16.40;99.90
20422;DHT22;10370;53.102;18.034;2023-04-23T17:08:47;16.30;99.90
20422;DHT22;10370;53.102;18.034;2023-04-23T17:14:12;16.30;99.90
20422;DHT22;10370;53.102;18.034;2023-04-23T17:19:37;16.10;99.90
20422;DHT22;10370;53.102;18.034;2023-04-23T17:25:02;16.00;99.90
20422;DHT22;10370;53.102;18.034;2023-04-23T17:30:30;15.90;99.90
20422;DHT22;10370;53.102;18.034;2023-04-23T17:35:56;15.80;99.90
20422;DHT22;10370;53.102;18.034;2023-04-23T17:41:21;15.70;99.90
20422;DHT22;10370;53.102;18.034;2023-04-23T17:46:45;15.80;99.90
20422;DHT22;10370;53.102;18.034;2023-04-23T17:52:11;15.80;99.90
20422;DHT22;10370;53.102;18.034;2023-04-23T17:57:36;15.90;99.90
20422;DHT22;10370;53.102;18.034;2023-04-23T18:03:03;15.90;99.90
20422;DHT22;10370;53.102;18.034;2023-04-23T18:08:28;16.00;99.90
20422;DHT22;10370;53.102;18.034;2023-04-23T18:13:55;15.80;99.90
20422;DHT22;10370;53.102;18.034;2023-04-23T18:19:20;15.60;99.90
20422;DHT22;10370;53.102;18.034;2023-04-23T18:24:44;15.60;99.90
20422;DHT22;10370;53.102;18.034;2023-04-23T18:30:07;15.50;99.90
20422;DHT22;10370;53.102;18.034;2023-04-23T18:35:30;15.40;99.90
20422;DHT22;10370;53.102;18.034;2023-04-23T18:40:58;15.30;99.90
20422;DHT22;10370;53.102;18.034;2023-04-23T18:46:28;15.40;99.90
20422;DHT22;10370;53.102;18.034;2023-04-23T18:51:53;15.30;99.90
20422;DHT22;10370;53.102;18.034;2023-04-23T18:57:16;15.20;99.90
20422;DHT22;10370;53.102;18.034;2023-04-23T19:02:39;15.10;99.90
20422;DHT22;10370;53.102;18.034;2023-04-23T19:08:04;15.00;99.90
20422;DHT22;10370;53.102;18.034;2023-04-23T19:13:28;15.10;99.90
20422;DHT22;10370;53.102;18.034;2023-04-23T19:18:50;15.00;99.90
20422;DHT22;10370;53.102;18.034;2023-04-23T19:24:16;15.00;99.90
20422;DHT22;10370;53.102;18.034;2023-04-23T19:29:37;15.00;99.90
20422;DHT22;10370;53.102;18.034;2023-04-23T19:34:59;14.90;99.90
20422;DHT22;10370;53.102;18.034;2023-04-23T19:40:22;14.90;99.90
20422;DHT22;10370;53.102;18.034;2023-04-23T19:45:44;14.80;99.90
20422;DHT22;10370;53.102;18.034;2023-04-23T19:51:06;14.70;99.90
20422;DHT22;10370;53.102;18.034;2023-04-23T19:56:28;14.60;99.90
20422;DHT22;10370;53.102;18.034;2023-04-23T20:01:52;14.60;99.90
20422;DHT22;10370;53.102;18.034;2023-04-23T20:07:15;14.50;99.90
20422;DHT22;10370;53.102;18.034;2023-04-23T20:12:39;14.40;99.90
20422;DHT22;10370;53.102;18.034;2023-04-23T20:18:03;14.30;99.90
20422;DHT22;10370;53.102;18.034;2023-04-23T20:23:31;14.10;99.90
20422;DHT22;10370;53.102;18.034;2023-04-23T20:28:54;14.10;99.90
20422;DHT22;10370;53.102;18.034;2023-04-23T20:34:18;14.00;99.90
20422;DHT22;10370;53.102;18.034;2023-04-23T20:39:45;13.90;99.90
20422;DHT22;10370;53.102;18.034;2023-04-23T20:45:10;13.90;99.90
20422;DHT22;10370;53.102;18.034;2023-04-23T20:50:34;13.90;99.90
20422;DHT22;10370;53.102;18.034;2023-04-23T20:55:58;13.70;99.90
20422;DHT22;10370;53.102;18.034;2023-04-23T21:01:24;13.60;99.90
20422;DHT22;10370;53.102;18.034;2023-04-23T21:06:50;13.50;99.90
20422;DHT22;10370;53.102;18.034;2023-04-23T21:12:20;13.40;99.90
20422;DHT22;10370;53.102;18.034;2023-04-23T21:17:45;13.30;99.90
20422;DHT22;10370;53.102;18.034;2023-04-23T21:23:10;13.20;99.90
20422;DHT22;10370;53.102;18.034;2023-04-23T21:28:37;13.10;99.90
20422;DHT22;10370;53.102;18.034;2023-04-23T21:34:00;13.10;99.90
20422;DHT22;10370;53.102;18.034;2023-04-23T21:39:24;13.10;99.90
20422;DHT22;10370;53.102;18.034;2023-04-23T21:44:48;13.10;99.90
20422;DHT22;10370;53.102;18.034;2023-04-23T21:55:48;13.20;99.90
20422;DHT22;10370;53.102;18.034;2023-04-23T22:01:13;13.10;99.90
20422;DHT22;10370;53.102;18.034;2023-04-23T22:06:39;13.10;99.90
20422;DHT22;10370;53.102;18.034;2023-04-23T22:12:03;13.00;99.90
20422;DHT22;10370;53.102;18.034;2023-04-23T22:17:31;13.00;99.90
20422;DHT22;10370;53.102;18.034;2023-04-23T22:22:56;12.90;99.90
20422;DHT22;10370;53.102;18.034;2023-04-23T22:28:23;12.90;99.90
20422;DHT22;10370;53.102;18.034;2023-04-23T22:33:48;12.80;99.90
20422;DHT22;10370;53.102;18.034;2023-04-23T22:39:13;12.60;99.90
20422;DHT22;10370;53.102;18.034;2023-04-23T22:44:38;12.60;99.90
20422;DHT22;10370;53.102;18.034;2023-04-23T22:50:03;12.70;99.90
20422;DHT22;10370;53.102;18.034;2023-04-23T22:55:28;12.70;99.90
20422;DHT22;10370;53.102;18.034;2023-04-23T23:00:53;12.60;99.90
20422;DHT22;10370;53.102;18.034;2023-04-23T23:06:19;12.70;99.90
20422;DHT22;10370;53.102;18.034;2023-04-23T23:11:46;12.80;99.90
20422;DHT22;10370;53.102;18.034;2023-04-23T23:17:11;12.80;99.90
20422;DHT22;10370;53.102;18.034;2023-04-23T23:22:36;12.80;99.90
20422;DHT22;10370;53.102;18.034;2023-04-23T23:28:01;12.70;99.90
20422;DHT22;10370;53.102;18.034;2023-04-23T23:33:27;12.60;99.90
20422;DHT22;10370;53.102;18.034;2023-04-23T23:38:53;12.60;99.90
20422;DHT22;10370;53.102;18.034;2023-04-23T23:44:18;12.60;99.90
20422;DHT22;10370;53.102;18.034;2023-04-23T23:49:43;12.70;99.90
20422;DHT22;10370;53.102;18.034;2023-04-23T23:55:09;12.70;99.90
